createdAt,value
2023-01-29T00:00:11.841Z,85.19
2023-01-29T00:02:41.245Z,85.17
2023-01-29T00:07:55.177Z,85.72
2023-01-29T00:10:20.951Z,85.81
2023-01-29T00:10:21.677Z,85.45
2023-01-29T00:12:48.164Z,85.86
2023-01-29T00:15:14.751Z,85.25
2023-01-29T00:17:41.161Z,85.74
2023-01-29T00:20:08.074Z,85.61
2023-01-29T00:22:34.489Z,85.76
2023-01-29T00:25:00.964Z,85.76
2023-01-29T00:27:27.393Z,85.54
2023-01-29T00:30:09.183Z,85.65
2023-01-29T00:32:36.176Z,85.61
2023-01-29T00:35:03.084Z,85.13
2023-01-29T00:37:29.779Z,85.79
2023-01-29T00:39:56.737Z,85.32
2023-01-29T00:42:41.573Z,85.80
2023-01-29T00:45:11.413Z,85.77
2023-01-29T00:47:37.992Z,85.73
2023-01-29T00:50:09.787Z,85.42
2023-01-29T00:52:36.775Z,85.80
2023-01-29T00:55:05.331Z,85.28
2023-01-29T00:57:33.150Z,85.86
2023-01-29T01:00:00.359Z,85.79
2023-01-29T01:02:46.073Z,85.74
2023-01-29T01:05:18.270Z,85.40
2023-01-29T01:07:46.874Z,85.72
2023-01-29T01:10:22.956Z,85.93
2023-01-29T01:13:01.434Z,85.45
2023-01-29T01:15:32.232Z,86.13
2023-01-29T01:18:01.256Z,86.21
2023-01-29T01:20:30.288Z,85.59
2023-01-29T01:22:57.606Z,85.98
2023-01-29T01:25:25.636Z,86.09
2023-01-29T01:27:53.684Z,85.94
2023-01-29T01:30:20.322Z,85.78
2023-01-29T01:32:46.745Z,86.04
2023-01-29T01:35:14.804Z,86.33
2023-01-29T01:37:42.056Z,85.86
2023-01-29T01:40:17.914Z,85.68
2023-01-29T01:42:47.697Z,86.17
2023-01-29T01:45:29.842Z,85.72
2023-01-29T01:47:59.000Z,85.91
2023-01-29T01:50:38.041Z,86.23
2023-01-29T01:53:11.305Z,86.05
2023-01-29T01:55:43.353Z,86.23
2023-01-29T01:58:15.701Z,86.42
2023-01-29T02:00:42.553Z,85.96
2023-01-29T02:03:29.817Z,85.73
2023-01-29T02:06:18.604Z,85.77
2023-01-29T02:09:14.111Z,85.79
2023-01-29T02:11:40.850Z,86.29
2023-01-29T02:14:07.811Z,86.33
2023-01-29T02:16:37.751Z,85.83
2023-01-29T02:19:29.537Z,85.99
2023-01-29T02:22:17.766Z,86.22
2023-01-29T02:25:12.007Z,86.20
2023-01-29T02:27:48.807Z,86.02
2023-01-29T02:30:37.349Z,85.87
2023-01-29T02:33:36.250Z,86.11
2023-01-29T02:36:18.204Z,86.08
2023-01-29T02:38:49.421Z,85.94
2023-01-29T02:41:31.197Z,86.18
2023-01-29T02:44:23.091Z,86.84
2023-01-29T02:47:00.199Z,86.19
2023-01-29T02:49:39.260Z,85.96
2023-01-29T02:52:23.273Z,86.36
2023-01-29T02:55:02.832Z,86.16
2023-01-29T02:57:34.641Z,86.28
2023-01-29T03:00:21.865Z,85.96
2023-01-29T03:03:00.619Z,86.59
2023-01-29T03:05:35.025Z,86.59
2023-01-29T03:08:10.879Z,86.51
2023-01-29T03:10:42.955Z,86.19
2023-01-29T03:13:26.385Z,86.64
2023-01-29T03:16:01.811Z,86.64
2023-01-29T03:18:43.652Z,86.60
2023-01-29T03:21:36.396Z,86.71
2023-01-29T03:24:22.922Z,86.75
2023-01-29T03:27:10.940Z,86.47
2023-01-29T03:30:02.500Z,86.40
2023-01-29T03:32:47.830Z,86.38
2023-01-29T03:35:21.006Z,86.91
2023-01-29T03:37:48.932Z,86.89
2023-01-29T03:40:16.286Z,86.96
2023-01-29T03:43:14.874Z,86.54
2023-01-29T03:45:54.771Z,87.04
2023-01-29T03:48:56.792Z,87.01
2023-01-29T03:51:37.936Z,87.00
2023-01-29T03:54:28.758Z,86.79
2023-01-29T03:57:05.479Z,86.76
2023-01-29T03:59:41.166Z,87.21
2023-01-29T04:02:51.105Z,87.35
2023-01-29T04:05:20.968Z,87.08
2023-01-29T04:08:06.913Z,86.74
2023-01-29T04:10:37.111Z,87.25
2023-01-29T04:13:10.619Z,87.02
2023-01-29T04:15:54.201Z,86.82
2023-01-29T04:18:31.268Z,86.76
2023-01-29T04:21:07.324Z,86.83
2023-01-29T04:23:34.752Z,86.78
2023-01-29T04:26:18.440Z,86.78
2023-01-29T04:28:59.017Z,86.34
2023-01-29T04:31:34.360Z,86.41
2023-01-29T04:34:23.110Z,86.50
2023-01-29T04:37:30.736Z,86.89
2023-01-29T04:40:15.393Z,86.47
2023-01-29T04:43:06.680Z,86.23
2023-01-29T04:45:45.120Z,86.91
2023-01-29T04:48:25.096Z,86.50
2023-01-29T04:51:25.826Z,86.19
2023-01-29T04:53:58.278Z,86.73
2023-01-29T04:56:43.464Z,86.17
2023-01-29T04:59:16.411Z,86.43
2023-01-29T05:01:44.058Z,86.30
2023-01-29T05:04:14.473Z,86.42
2023-01-29T05:06:42.281Z,85.71
2023-01-29T05:09:09.815Z,86.41
2023-01-29T05:11:37.546Z,85.64
2023-01-29T05:14:08.037Z,86.08
2023-01-29T05:16:43.540Z,85.43
2023-01-29T05:19:15.160Z,85.51
2023-01-29T05:21:44.604Z,85.60
2023-01-29T05:24:15.354Z,85.45
2023-01-29T05:27:02.503Z,86.15
2023-01-29T05:29:29.320Z,85.48
2023-01-29T05:31:55.842Z,85.94
2023-01-29T05:34:22.390Z,86.06
2023-01-29T05:36:48.826Z,85.83
2023-01-29T05:39:15.356Z,85.48
2023-01-29T05:41:41.932Z,85.73
2023-01-29T05:44:10.416Z,85.72
2023-01-29T05:46:37.840Z,85.80
2023-01-29T05:49:04.691Z,85.89
2023-01-29T05:51:31.275Z,86.08
2023-01-29T05:53:57.716Z,85.80
2023-01-29T05:56:25.312Z,85.72
2023-01-29T05:58:51.782Z,85.61
2023-01-29T06:01:21.442Z,85.07
2023-01-29T06:03:48.385Z,85.20
2023-01-29T06:06:15.967Z,85.09
2023-01-29T06:08:42.677Z,85.43
2023-01-29T06:11:12.153Z,85.29
2023-01-29T06:13:38.812Z,85.40
2023-01-29T06:16:07.171Z,85.03
2023-01-29T06:18:33.731Z,84.82
2023-01-29T06:21:04.613Z,84.78
2023-01-29T06:23:31.151Z,85.25
2023-01-29T06:26:06.804Z,85.25
2023-01-29T06:28:33.551Z,84.91
2023-01-29T06:31:21.057Z,84.77
2023-01-29T06:33:48.972Z,84.97
2023-01-29T06:36:15.436Z,84.97
2023-01-29T06:38:41.879Z,84.59
2023-01-29T06:41:12.928Z,84.20
2023-01-29T06:43:39.785Z,84.19
2023-01-29T06:46:08.364Z,84.34
2023-01-29T06:48:35.618Z,84.53
2023-01-29T06:51:06.681Z,84.65
2023-01-29T06:53:34.364Z,83.87
2023-01-29T06:56:00.855Z,84.07
2023-01-29T06:58:27.295Z,84.20
2023-01-29T07:00:53.771Z,84.17
2023-01-29T07:03:20.390Z,84.22
2023-01-29T07:05:51.909Z,83.86
2023-01-29T07:08:18.711Z,83.71
2023-01-29T07:10:45.373Z,83.46
2023-01-29T07:13:11.756Z,83.40
2023-01-29T07:15:38.180Z,83.94
2023-01-29T07:18:11.817Z,84.11
2023-01-29T07:20:42.509Z,83.41
2023-01-29T07:23:12.095Z,83.99
2023-01-29T07:25:39.464Z,83.80
2023-01-29T07:28:06.839Z,83.96
2023-01-29T07:30:34.472Z,84.03
2023-01-29T07:33:02.827Z,83.72
2023-01-29T07:35:29.310Z,83.29
2023-01-29T07:37:55.773Z,83.51
2023-01-29T07:40:22.670Z,83.96
2023-01-29T07:42:49.160Z,83.55
2023-01-29T07:45:15.602Z,83.83
2023-01-29T07:47:42.015Z,83.38
2023-01-29T07:50:09.055Z,83.63
2023-01-29T07:52:36.014Z,83.29
2023-01-29T07:55:02.438Z,83.75
2023-01-29T07:57:30.540Z,83.38
2023-01-29T07:59:56.987Z,83.59
2023-01-29T08:02:23.499Z,83.41
2023-01-29T08:04:49.987Z,83.01
2023-01-29T08:07:16.480Z,83.66
2023-01-29T08:09:42.925Z,83.36
2023-01-29T08:12:09.383Z,83.52
2023-01-29T08:14:35.873Z,83.58
2023-01-29T08:17:02.369Z,83.45
2023-01-29T08:19:28.898Z,83.34
2023-01-29T08:21:55.298Z,82.77
2023-01-29T08:24:21.783Z,82.86
2023-01-29T08:26:48.390Z,83.23
2023-01-29T08:29:14.977Z,82.44
2023-01-29T08:31:41.628Z,82.39
2023-01-29T08:34:08.028Z,82.85
2023-01-29T08:36:34.947Z,82.49
2023-01-29T08:39:01.588Z,81.99
2023-01-29T08:41:28.044Z,81.80
2023-01-29T08:43:54.466Z,81.67
2023-01-29T08:46:21.040Z,81.98
2023-01-29T08:48:47.464Z,81.79
2023-01-29T08:51:14.294Z,81.30
2023-01-29T08:53:40.790Z,81.61
2023-01-29T08:56:07.557Z,81.45
2023-01-29T08:58:33.981Z,81.37
2023-01-29T09:01:11.669Z,81.66
2023-01-29T09:03:41.030Z,81.20
2023-01-29T09:06:09.690Z,81.08
2023-01-29T09:08:36.175Z,80.81
2023-01-29T09:11:02.693Z,80.83
2023-01-29T09:13:29.210Z,81.00
2023-01-29T09:16:00.110Z,81.09
2023-01-29T09:18:26.749Z,81.30
2023-01-29T09:20:54.068Z,80.75
2023-01-29T09:23:20.809Z,81.20
2023-01-29T09:25:47.463Z,80.12
2023-01-29T09:28:13.964Z,79.95
2023-01-29T09:30:40.566Z,79.95
2023-01-29T09:33:07.698Z,79.48
2023-01-29T09:35:34.769Z,79.85
2023-01-29T09:38:01.443Z,80.30
2023-01-29T09:40:35.429Z,79.92
2023-01-29T09:43:06.649Z,80.09
2023-01-29T09:45:34.164Z,79.66
2023-01-29T09:48:03.136Z,79.52
2023-01-29T09:50:36.254Z,79.57
2023-01-29T09:53:15.030Z,79.18
2023-01-29T09:55:49.163Z,79.11
2023-01-29T09:58:28.005Z,79.48
2023-01-29T10:01:08.205Z,79.16
2023-01-29T10:04:12.382Z,78.63
2023-01-29T10:07:06.782Z,78.93
2023-01-29T10:09:57.614Z,78.91
2023-01-29T10:12:26.661Z,78.98
2023-01-29T10:15:09.461Z,79.03
2023-01-29T10:17:50.300Z,79.07
2023-01-29T10:20:52.919Z,78.92
2023-01-29T10:23:38.373Z,79.08
2023-01-29T10:26:04.845Z,79.19
2023-01-29T10:28:48.355Z,79.07
2023-01-29T10:31:24.988Z,79.09
2023-01-29T10:34:03.457Z,79.30
2023-01-29T10:36:42.910Z,79.20
2023-01-29T10:39:19.792Z,79.34
2023-01-29T10:42:00.712Z,79.62
2023-01-29T10:44:42.615Z,79.35
2023-01-29T10:47:37.444Z,79.26
2023-01-29T10:50:23.252Z,78.83
2023-01-29T10:53:08.173Z,79.14
2023-01-29T10:55:52.893Z,78.55
2023-01-29T10:58:28.545Z,78.36
2023-01-29T11:00:55.097Z,78.58
2023-01-29T11:03:30.748Z,78.25
2023-01-29T11:06:17.565Z,79.05
2023-01-29T11:09:08.304Z,78.72
2023-01-29T11:11:41.936Z,78.74
2023-01-29T11:14:31.614Z,78.75
2023-01-29T11:16:58.913Z,78.17
2023-01-29T11:19:43.186Z,78.63
2023-01-29T11:22:15.776Z,78.93
2023-01-29T11:24:43.119Z,78.41
2023-01-29T11:27:23.678Z,78.50
2023-01-29T11:29:50.303Z,78.89
2023-01-29T11:32:19.733Z,78.95
2023-01-29T11:35:19.850Z,78.91
2023-01-29T11:37:47.222Z,78.99
2023-01-29T11:40:20.066Z,79.59
2023-01-29T11:42:47.291Z,78.99
2023-01-29T11:45:22.576Z,78.72
2023-01-29T11:47:59.631Z,79.01
2023-01-29T11:50:29.074Z,78.85
2023-01-29T11:52:56.332Z,79.22
2023-01-29T11:55:25.683Z,79.55
2023-01-29T11:58:03.429Z,79.51
2023-01-29T12:00:33.100Z,79.97
2023-01-29T12:03:17.179Z,79.79
2023-01-29T12:05:55.798Z,79.65
2023-01-29T12:08:24.022Z,80.37
2023-01-29T12:10:51.064Z,80.38
2023-01-29T12:13:26.917Z,80.54
2023-01-29T12:16:29.310Z,80.56
2023-01-29T12:19:33.507Z,81.17
2023-01-29T12:22:09.092Z,81.05
2023-01-29T12:24:40.142Z,81.17
2023-01-29T12:27:24.020Z,81.21
2023-01-29T12:30:16.824Z,81.63
2023-01-29T12:32:55.577Z,80.63
2023-01-29T12:35:36.992Z,81.21
2023-01-29T12:38:14.009Z,81.26
2023-01-29T12:40:47.004Z,81.52
2023-01-29T12:43:17.464Z,81.22
2023-01-29T12:45:48.027Z,80.74
2023-01-29T12:48:21.681Z,80.85
2023-01-29T12:50:50.369Z,81.24
2023-01-29T12:53:28.114Z,81.38
2023-01-29T12:56:00.566Z,80.91
2023-01-29T12:58:57.711Z,81.08
2023-01-29T13:01:36.996Z,81.40
2023-01-29T13:04:16.335Z,80.99
2023-01-29T13:06:50.726Z,81.46
2023-01-29T13:09:26.680Z,81.50
2023-01-29T13:12:03.731Z,81.42
2023-01-29T13:15:05.045Z,81.51
2023-01-29T13:17:43.037Z,81.60
2023-01-29T13:20:22.364Z,81.39
2023-01-29T13:22:51.765Z,81.69
2023-01-29T13:25:20.333Z,81.60
2023-01-29T13:27:48.558Z,81.45
2023-01-29T13:30:32.077Z,80.85
2023-01-29T13:33:11.131Z,80.45
2023-01-29T13:35:44.876Z,80.82
2023-01-29T13:38:25.404Z,80.85
2023-01-29T13:40:54.075Z,79.88
2023-01-29T13:43:23.485Z,80.45
2023-01-29T13:45:52.677Z,80.57
2023-01-29T13:48:27.568Z,81.06
2023-01-29T13:50:56.726Z,80.64
2023-01-29T13:53:25.359Z,80.82
2023-01-29T13:55:51.804Z,80.56
2023-01-29T13:58:33.175Z,80.86
2023-01-29T14:01:01.369Z,80.25
2023-01-29T14:03:29.980Z,80.33
2023-01-29T14:06:02.626Z,80.29
2023-01-29T14:08:34.701Z,80.92
2023-01-29T14:11:35.655Z,80.82
2023-01-29T14:14:02.184Z,81.12
2023-01-29T14:16:35.803Z,81.47
2023-01-29T14:19:05.128Z,80.78
2023-01-29T14:21:34.269Z,81.27
2023-01-29T14:24:19.681Z,81.13
2023-01-29T14:26:49.100Z,81.15
2023-01-29T14:29:33.834Z,81.02
2023-01-29T14:32:12.081Z,80.91
2023-01-29T14:34:47.786Z,80.98
2023-01-29T14:37:17.063Z,81.60
2023-01-29T14:39:46.982Z,81.88
2023-01-29T14:42:25.731Z,81.22
2023-01-29T14:44:55.325Z,81.40
2023-01-29T14:47:41.706Z,81.41
2023-01-29T14:50:32.745Z,81.53
2023-01-29T14:53:09.469Z,81.46
2023-01-29T14:55:45.337Z,81.65
2023-01-29T14:58:16.555Z,81.66
2023-01-29T15:00:45.956Z,81.85
2023-01-29T15:03:19.475Z,82.16
2023-01-29T15:05:47.978Z,81.84
2023-01-29T15:08:30.046Z,81.89
2023-01-29T15:11:17.770Z,81.92
2023-01-29T15:13:52.146Z,82.12
2023-01-29T15:16:27.087Z,82.03
2023-01-29T15:19:04.194Z,81.64
2023-01-29T15:21:30.686Z,81.78
2023-01-29T15:24:05.369Z,81.46
2023-01-29T15:26:32.375Z,82.01
2023-01-29T15:29:05.057Z,81.94
2023-01-29T15:31:32.199Z,82.31
2023-01-29T15:34:06.114Z,82.20
2023-01-29T15:36:33.076Z,82.27
2023-01-29T15:39:11.508Z,82.61
2023-01-29T15:41:38.273Z,82.22
2023-01-29T15:44:13.549Z,82.81
2023-01-29T15:46:42.757Z,82.61
2023-01-29T15:49:11.023Z,82.18
2023-01-29T15:51:38.725Z,82.63
2023-01-29T15:54:14.664Z,83.20
2023-01-29T15:56:50.346Z,83.29
2023-01-29T15:59:21.415Z,82.84
2023-01-29T16:01:48.080Z,83.07
2023-01-29T16:04:26.877Z,83.65
2023-01-29T16:06:55.614Z,83.35
2023-01-29T16:09:25.955Z,83.52
2023-01-29T16:11:54.479Z,83.30
2023-01-29T16:14:25.478Z,83.89
2023-01-29T16:16:52.928Z,84.13
2023-01-29T16:19:26.517Z,85.17
2023-01-29T16:21:59.129Z,85.70
2023-01-29T16:24:26.803Z,86.58
2023-01-29T16:27:02.100Z,86.71
2023-01-29T16:29:33.853Z,87.08
2023-01-29T16:32:02.522Z,86.98
2023-01-29T16:34:38.914Z,86.98
2023-01-29T16:37:16.074Z,86.99
2023-01-29T16:39:47.130Z,87.03
2023-01-29T16:42:17.190Z,87.24
2023-01-29T16:44:51.538Z,87.47
2023-01-29T16:47:31.845Z,87.87
2023-01-29T16:50:22.655Z,88.15
2023-01-29T16:53:18.354Z,88.39
2023-01-29T16:55:49.335Z,88.50
2023-01-29T16:58:28.048Z,88.48
2023-01-29T17:01:09.211Z,89.03
2023-01-29T17:03:37.253Z,89.00
2023-01-29T17:06:26.173Z,89.52
2023-01-29T17:08:53.468Z,90.11
2023-01-29T17:11:41.664Z,89.84
2023-01-29T17:14:09.506Z,89.74
2023-01-29T17:16:49.757Z,89.60
2023-01-29T17:19:20.694Z,89.82
2023-01-29T17:21:47.805Z,90.05
2023-01-29T17:24:14.408Z,89.89
2023-01-29T17:26:41.127Z,89.90
2023-01-29T17:29:15.377Z,89.43
2023-01-29T17:31:43.503Z,89.41
2023-01-29T17:34:14.796Z,89.03
2023-01-29T17:36:42.479Z,88.94
2023-01-29T17:39:16.743Z,88.73
2023-01-29T17:41:47.465Z,88.34
2023-01-29T17:44:13.984Z,88.32
2023-01-29T17:46:40.405Z,88.35
2023-01-29T17:49:27.761Z,88.01
2023-01-29T17:51:55.976Z,87.77
2023-01-29T17:54:23.480Z,87.90
2023-01-29T17:56:52.209Z,87.90
2023-01-29T17:59:21.297Z,87.70
2023-01-29T18:01:48.453Z,87.58
2023-01-29T18:04:15.038Z,87.55
2023-01-29T18:06:43.066Z,87.51
2023-01-29T18:09:20.460Z,87.18
2023-01-29T18:11:48.470Z,87.10
2023-01-29T18:14:15.341Z,87.38
2023-01-29T18:16:43.982Z,87.14
2023-01-29T18:19:21.921Z,87.32
2023-01-29T18:21:49.317Z,87.10
2023-01-29T18:24:16.132Z,87.25
2023-01-29T18:26:42.944Z,87.27
2023-01-29T18:29:09.506Z,87.08
2023-01-29T18:31:36.119Z,87.41
2023-01-29T18:34:02.679Z,87.02
2023-01-29T18:36:29.474Z,87.38
2023-01-29T18:38:57.335Z,86.95
2023-01-29T18:41:24.074Z,87.23
2023-01-29T18:43:52.584Z,87.68
2023-01-29T18:46:20.056Z,87.33
2023-01-29T18:48:46.561Z,87.71
2023-01-29T18:51:13.526Z,87.42
2023-01-29T18:53:40.224Z,87.43
2023-01-29T18:56:07.272Z,87.61
2023-01-29T18:58:36.770Z,87.56
2023-01-29T19:01:10.072Z,87.45
2023-01-29T19:03:36.997Z,87.46
2023-01-29T19:06:05.673Z,87.45
2023-01-29T19:08:32.521Z,87.51
2023-01-29T19:11:02.282Z,87.75
2023-01-29T19:13:30.854Z,87.40
2023-01-29T19:15:57.824Z,87.63
2023-01-29T19:18:26.050Z,87.72
2023-01-29T19:20:53.454Z,87.67
2023-01-29T19:23:20.726Z,87.82
2023-01-29T19:25:47.600Z,87.53
2023-01-29T19:28:14.594Z,87.90
2023-01-29T19:30:41.161Z,87.69
2023-01-29T19:33:09.089Z,87.48
2023-01-29T19:35:35.903Z,87.51
2023-01-29T19:38:02.457Z,88.17
2023-01-29T19:40:28.945Z,88.09
2023-01-29T19:42:56.125Z,87.68
2023-01-29T19:45:48.984Z,88.07
2023-01-29T19:48:13.428Z,88.38
2023-01-29T19:50:39.859Z,88.12
2023-01-29T19:53:06.386Z,88.33
2023-01-29T19:55:32.841Z,88.37
2023-01-29T19:57:59.552Z,88.24
2023-01-29T20:00:26.062Z,88.18
2023-01-29T20:02:52.527Z,88.22
2023-01-29T20:05:20.343Z,88.50
2023-01-29T20:07:47.118Z,88.67
2023-01-29T20:10:17.354Z,88.46
2023-01-29T20:12:45.186Z,88.44
2023-01-29T20:15:13.388Z,88.76
2023-01-29T20:17:40.092Z,88.74
2023-01-29T20:20:07.045Z,88.93
2023-01-29T20:22:33.599Z,88.56
2023-01-29T20:25:00.121Z,88.68
2023-01-29T20:27:26.625Z,88.95
2023-01-29T20:29:53.178Z,89.08
2023-01-29T20:32:19.779Z,88.71
2023-01-29T20:34:49.660Z,88.72
2023-01-29T20:37:16.182Z,89.05
2023-01-29T20:39:42.586Z,89.11
2023-01-29T20:42:09.011Z,89.21
2023-01-29T20:44:35.453Z,89.59
2023-01-29T20:47:02.641Z,89.61
2023-01-29T20:49:29.229Z,89.30
2023-01-29T20:51:55.705Z,89.24
2023-01-29T20:54:22.258Z,89.72
2023-01-29T20:56:48.990Z,89.51
2023-01-29T20:59:15.581Z,89.70
2023-01-29T21:01:43.030Z,90.23
2023-01-29T21:04:09.654Z,89.87
2023-01-29T21:06:36.184Z,90.33
2023-01-29T21:09:02.730Z,89.98
2023-01-29T21:11:29.186Z,90.24
2023-01-29T21:13:57.716Z,90.93
2023-01-29T21:16:26.198Z,90.64
2023-01-29T21:18:56.334Z,90.83
2023-01-29T21:21:22.819Z,91.08
2023-01-29T21:23:49.379Z,91.22
2023-01-29T21:26:15.833Z,91.00
2023-01-29T21:28:42.265Z,91.67
2023-01-29T21:31:10.653Z,91.15
2023-01-29T21:33:38.076Z,91.64
2023-01-29T21:36:04.932Z,91.53
2023-01-29T21:38:31.445Z,91.89
2023-01-29T21:41:02.631Z,91.85
2023-01-29T21:43:29.272Z,92.03
2023-01-29T21:46:00.536Z,91.72
2023-01-29T21:48:27.105Z,92.12
2023-01-29T21:50:53.576Z,92.18
2023-01-29T21:53:20.240Z,91.99
2023-01-29T21:55:47.019Z,92.12
2023-01-29T21:58:14.673Z,92.22
2023-01-29T22:00:41.301Z,91.87
2023-01-29T22:03:07.791Z,93.02
2023-01-29T22:05:34.932Z,92.78
2023-01-29T22:08:01.560Z,92.39
2023-01-29T22:10:28.871Z,92.65
2023-01-29T22:12:55.562Z,93.00
2023-01-29T22:15:23.697Z,92.28
2023-01-29T22:17:50.734Z,92.39
2023-01-29T22:20:17.796Z,92.45
2023-01-29T22:22:44.557Z,92.68
2023-01-29T22:25:11.291Z,92.50
2023-01-29T22:27:37.862Z,93.17
2023-01-29T22:30:05.785Z,93.19
2023-01-29T22:32:32.862Z,92.84
2023-01-29T22:34:59.307Z,92.84
2023-01-29T22:37:25.717Z,93.46
2023-01-29T22:39:52.121Z,93.12
2023-01-29T22:42:20.516Z,93.70
2023-01-29T22:44:48.066Z,93.54
2023-01-29T22:47:14.523Z,93.29
2023-01-29T22:49:41.556Z,93.42
2023-01-29T22:52:10.976Z,94.16
2023-01-29T22:54:38.967Z,93.91
2023-01-29T22:57:06.289Z,94.07
2023-01-29T22:59:33.486Z,93.96
2023-01-29T23:02:00.051Z,93.93
2023-01-29T23:04:26.673Z,94.64
2023-01-29T23:06:53.320Z,94.36
2023-01-29T23:09:19.994Z,94.10
2023-01-29T23:11:46.448Z,93.95
2023-01-29T23:14:12.854Z,94.60
2023-01-29T23:16:39.277Z,94.50
2023-01-29T23:19:05.734Z,94.52
2023-01-29T23:21:32.251Z,94.92
2023-01-29T23:23:59.587Z,94.51
2023-01-29T23:26:45.242Z,94.39
2023-01-29T23:29:12.047Z,94.50
2023-01-29T23:31:39.103Z,94.38
2023-01-29T23:34:05.671Z,94.40
2023-01-29T23:36:32.135Z,95.16
2023-01-29T23:38:58.743Z,95.08
2023-01-29T23:41:25.185Z,95.21
2023-01-29T23:43:52.762Z,94.78
2023-01-29T23:46:19.282Z,95.32
2023-01-29T23:48:45.745Z,94.35
2023-01-29T23:51:12.252Z,94.60
2023-01-29T23:53:38.736Z,94.72
2023-01-29T23:56:05.783Z,94.92
2023-01-29T23:58:32.954Z,94.10
